Time;durP1;ratioP1;P1;durP2;ratioP2;P2;SDS_P1;SDS_P2;PMS_P1;PMS_P2;Temp;Humidity;BMP_temperature;BMP_pressure;BME280_temperature;BME280_humidity;BME280_pressure;Samples;Min_cycle;Max_cycle;Signal;HPM_P1;HPM_P2
2023/06/12 00:00:41;;;;;;;16.83;8.20;;;;;;;18.03;100.00;98236.50;5041612;28;20069;-94
2023/06/12 00:03:07;;;;;;;18.67;8.80;;;;;;;18.00;100.00;98242.94;5041515;28;20076;-94
2023/06/12 00:05:33;;;;;;;21.77;8.93;;;;;;;18.05;100.00;98250.72;5042541;28;20510;-95
2023/06/12 00:08:00;;;;;;;20.73;8.68;;;;;;;18.09;100.00;98252.25;5042111;28;20049;-93
2023/06/12 00:10:26;;;;;;;16.63;8.15;;;;;;;18.09;99.46;98236.09;5042275;28;20045;-94
2023/06/12 00:12:52;;;;;;;26.08;8.30;;;;;;;18.16;99.45;98247.31;5042356;28;20045;-92
2023/06/12 00:15:20;;;;;;;17.60;7.63;;;;;;;18.03;98.95;98218.50;5043343;28;20064;-94
2023/06/12 00:17:46;;;;;;;15.02;7.72;;;;;;;18.18;98.82;98257.00;5045076;28;20063;-95
2023/06/12 00:20:12;;;;;;;14.68;7.72;;;;;;;18.17;98.94;98249.91;5043644;28;20136;-95
2023/06/12 00:22:40;;;;;;;16.13;8.15;;;;;;;18.03;97.47;98215.81;5043551;28;20045;-94
2023/06/12 00:25:07;;;;;;;16.30;8.55;;;;;;;18.04;98.18;98219.38;5044466;28;20057;-95
2023/06/12 00:27:33;;;;;;;16.05;8.00;;;;;;;18.10;97.15;98243.19;5044699;28;20049;-94
2023/06/12 00:29:59;;;;;;;16.58;7.20;;;;;;;18.26;95.29;98253.81;5044412;28;20091;-95
2023/06/12 00:32:26;;;;;;;16.90;7.35;;;;;;;18.15;95.39;98234.81;5044504;28;20053;-94
2023/06/12 00:34:52;;;;;;;15.23;7.38;;;;;;;18.12;95.72;98235.03;5042592;28;20042;-96
2023/06/12 00:37:18;;;;;;;17.40;8.15;;;;;;;18.20;95.68;98255.06;5043218;28;20107;-95
2023/06/12 00:39:45;;;;;;;16.77;7.50;;;;;;;18.03;96.46;98233.81;5043048;28;20057;-94
2023/06/12 00:42:11;;;;;;;14.98;7.47;;;;;;;17.96;98.31;98244.09;5042464;28;20049;-92
2023/06/12 00:44:37;;;;;;;14.95;7.93;;;;;;;17.96;99.02;98240.56;5042231;28;20045;-91
2023/06/12 00:47:04;;;;;;;16.33;7.72;;;;;;;17.88;99.83;98229.44;5043013;28;20046;-96
2023/06/12 00:49:32;;;;;;;17.48;8.55;;;;;;;17.99;100.00;98256.47;5044289;28;20407;-93
2023/06/12 00:51:58;;;;;;;16.40;7.88;;;;;;;17.96;100.00;98272.84;5045124;28;20108;-96
2023/06/12 00:54:25;;;;;;;15.00;7.97;;;;;;;17.79;100.00;98245.16;5045474;28;20055;-95
2023/06/12 00:56:51;;;;;;;17.55;8.15;;;;;;;17.94;100.00;98269.38;5044156;28;20045;-95
2023/06/12 00:59:17;;;;;;;18.48;8.10;;;;;;;17.75;100.00;98246.31;5043411;28;20053;-95
2023/06/12 01:01:43;;;;;;;17.00;8.02;;;;;;;17.75;100.00;98243.63;5043491;28;20057;-95
2023/06/12 01:04:10;;;;;;;15.68;7.97;;;;;;;17.73;100.00;98232.13;5043305;28;20052;-94
2023/06/12 01:06:47;;;;;;;17.80;8.15;;;;;;;17.65;100.00;98237.13;5044227;28;20076;-94
2023/06/12 01:09:25;;;;;;;15.60;7.93;;;;;;;17.68;100.00;98247.69;5043255;28;20065;-94
2023/06/12 01:11:52;;;;;;;14.73;8.10;;;;;;;17.59;100.00;98224.09;5042318;28;20499;-94
2023/06/12 01:14:20;;;;;;;15.35;7.53;;;;;;;17.66;100.00;98222.72;5044282;28;20038;-94
2023/06/12 01:16:47;;;;;;;15.82;8.10;;;;;;;17.65;100.00;98216.50;5044748;28;20064;-92
2023/06/12 01:19:17;;;;;;;15.73;7.63;;;;;;;17.85;100.00;98241.25;5043825;28;20049;-94
2023/06/12 01:21:48;;;;;;;18.63;8.65;;;;;;;17.69;100.00;98235.09;5044231;28;20042;-93
2023/06/12 01:24:53;;;;;;;17.38;7.53;;;;;;;17.69;100.00;98225.19;5043696;28;20402;-95
2023/06/12 01:27:36;;;;;;;18.20;8.50;;;;;;;17.68;100.00;98215.44;5043666;28;20052;-95
2023/06/12 01:30:20;;;;;;;17.05;8.05;;;;;;;17.80;100.00;98225.41;5040491;28;20046;-95
2023/06/12 01:32:50;;;;;;;15.65;7.93;;;;;;;17.91;100.00;98237.28;5041665;28;20060;-95
2023/06/12 01:35:23;;;;;;;16.65;7.78;;;;;;;17.94;100.00;98254.09;5042122;28;20052;-95
2023/06/12 01:37:54;;;;;;;19.48;8.23;;;;;;;17.89;99.78;98242.78;5043542;28;20053;-94
2023/06/12 01:40:22;;;;;;;21.60;8.95;;;;;;;17.78;100.00;98227.31;5045181;28;20081;-95
2023/06/12 01:42:49;;;;;;;15.98;8.20;;;;;;;17.74;100.00;98228.47;5044774;28;20049;-94
2023/06/12 01:45:15;;;;;;;20.77;8.40;;;;;;;17.65;100.00;98223.66;5061322;28;20049;-93
2023/06/12 01:47:41;;;;;;;17.88;8.02;;;;;;;17.60;100.00;98233.88;5049340;28;20072;-95
2023/06/12 01:50:10;;;;;;;23.33;8.52;;;;;;;17.59;100.00;98241.09;5050406;28;20050;-94
2023/06/12 01:52:38;;;;;;;19.77;8.77;;;;;;;17.61;100.00;98262.50;5049432;28;20053;-95
2023/06/12 01:55:05;;;;;;;19.98;8.23;;;;;;;17.29;100.00;98233.16;5049460;28;20044;-95
2023/06/12 01:57:32;;;;;;;19.40;8.15;;;;;;;17.33;100.00;98263.38;5048875;28;20121;-93
2023/06/12 02:00:00;;;;;;;20.70;8.45;;;;;;;16.93;100.00;98238.97;5048708;28;20045;-94
2023/06/12 02:02:26;;;;;;;19.88;8.32;;;;;;;16.84;100.00;98229.66;5048643;28;20046;-95
2023/06/12 02:04:52;;;;;;;19.58;8.30;;;;;;;17.13;100.00;98265.50;5048210;28;20487;-93
2023/06/12 02:07:20;;;;;;;22.10;8.77;;;;;;;16.87;100.00;98236.66;5047406;28;20450;-94
2023/06/12 02:09:46;;;;;;;16.50;7.95;;;;;;;16.62;100.00;98225.56;5047096;28;20049;-94
2023/06/12 02:12:12;;;;;;;18.65;7.88;;;;;;;16.51;100.00;98222.66;5046310;28;20394;-93
2023/06/12 02:14:38;;;;;;;18.33;9.10;;;;;;;16.48;100.00;98222.88;5046158;28;20034;-93
2023/06/12 02:17:04;;;;;;;20.27;8.93;;;;;;;16.41;100.00;98219.66;5046582;28;20046;-93
2023/06/12 02:19:30;;;;;;;19.83;8.80;;;;;;;16.40;100.00;98219.75;5046232;28;20045;-92
2023/06/12 02:21:56;;;;;;;19.10;8.60;;;;;;;16.67;100.00;98248.59;5062792;28;20624;-92
2023/06/12 02:24:25;;;;;;;19.83;9.45;;;;;;;16.57;100.00;98213.41;5045708;28;20144;-94
2023/06/12 02:26:51;;;;;;;19.88;8.73;;;;;;;16.93;100.00;98249.72;5046540;28;20045;-94
2023/06/12 02:29:17;;;;;;;16.40;8.27;;;;;;;16.77;100.00;98210.34;5046807;28;20068;-95
2023/06/12 02:31:43;;;;;;;19.00;8.77;;;;;;;16.99;100.00;98260.09;5047061;28;20049;-93
2023/06/12 02:34:09;;;;;;;18.83;7.75;;;;;;;16.71;100.00;98207.19;5047106;28;20064;-94
2023/06/12 02:36:39;;;;;;;16.77;7.90;;;;;;;16.66;100.00;98220.03;5064253;28;20042;-96
2023/06/12 02:39:06;;;;;;;18.38;8.27;;;;;;;16.63;100.00;98221.06;5047864;28;20049;-95
2023/06/12 02:41:33;;;;;;;17.67;8.15;;;;;;;16.59;100.00;98217.72;5048466;28;20488;-95
2023/06/12 02:44:05;;;;;;;16.70;8.05;;;;;;;16.52;100.00;98216.31;5048535;28;20050;-94
2023/06/12 02:46:31;;;;;;;17.60;8.30;;;;;;;16.62;100.00;98222.88;5048707;28;20056;-92
2023/06/12 02:48:58;;;;;;;14.32;7.50;;;;;;;16.74;100.00;98250.81;5048712;28;20049;-95
2023/06/12 02:51:26;;;;;;;16.98;8.23;;;;;;;16.53;100.00;98225.28;5048016;28;20491;-94
2023/06/12 02:53:52;;;;;;;19.23;8.57;;;;;;;16.46;100.00;98224.78;5048214;28;20144;-93
2023/06/12 02:56:18;;;;;;;18.15;8.05;;;;;;;16.41;100.00;98221.47;5047172;28;20279;-94
2023/06/12 02:58:46;;;;;;;16.13;7.40;;;;;;;16.32;100.00;98232.78;5046522;28;20046;-96
2023/06/12 03:01:12;;;;;;;15.27;8.55;;;;;;;16.23;100.00;98226.97;5046194;28;20068;-94
2023/06/12 03:03:39;;;;;;;18.25;8.70;;;;;;;16.61;100.00;98242.63;5046722;28;20049;-93
2023/06/12 03:06:06;;;;;;;15.18;7.95;;;;;;;16.51;100.00;98217.28;5047600;28;20041;-94
2023/06/12 03:08:33;;;;;;;15.18;7.55;;;;;;;16.59;100.00;98241.88;5047685;28;20041;-96
2023/06/12 03:11:02;;;;;;;16.98;7.90;;;;;;;16.78;100.00;98262.22;5048199;28;20050;-95
2023/06/12 03:13:28;;;;;;;16.05;8.05;;;;;;;16.58;100.00;98233.91;5047531;28;20112;-95
2023/06/12 03:15:57;;;;;;;17.77;8.05;;;;;;;16.53;100.00;98228.81;5048103;28;20045;-96
2023/06/12 03:18:23;;;;;;;15.32;7.43;;;;;;;16.68;100.00;98261.06;5063864;28;20049;-95
2023/06/12 03:20:49;;;;;;;14.85;7.45;;;;;;;16.60;100.00;98258.81;5064577;28;20107;-94
2023/06/12 03:23:16;;;;;;;16.45;7.85;;;;;;;16.57;100.00;98267.94;5048053;28;20046;-93
2023/06/12 03:25:42;;;;;;;13.18;7.13;;;;;;;16.34;100.00;98242.44;5045563;28;20041;-95
2023/06/12 03:28:11;;;;;;;14.65;7.60;;;;;;;16.39;100.00;98261.84;5045373;28;20041;-94
2023/06/12 03:30:37;;;;;;;20.13;8.40;;;;;;;16.16;100.00;98238.19;5045700;28;20116;-93
2023/06/12 03:33:09;;;;;;;15.65;7.80;;;;;;;16.11;100.00;98238.44;5045672;28;20049;-93
2023/06/12 03:35:35;;;;;;;20.80;9.00;;;;;;;16.11;100.00;98238.44;5046534;28;20076;-93
2023/06/12 03:38:01;;;;;;;14.10;7.88;;;;;;;16.11;100.00;98242.94;5046183;28;20045;-94
2023/06/12 03:40:28;;;;;;;17.40;8.07;;;;;;;16.11;100.00;98254.53;5046739;28;20041;-94
2023/06/12 03:42:54;;;;;;;16.95;7.75;;;;;;;16.10;100.00;98244.75;5046556;28;20064;-95
2023/06/12 03:45:20;;;;;;;17.02;7.72;;;;;;;16.07;100.00;98238.69;5046360;28;20049;-93
2023/06/12 03:47:46;;;;;;;16.48;8.60;;;;;;;16.14;100.00;98254.34;5045998;28;20049;-94
2023/06/12 03:50:13;;;;;;;17.85;8.10;;;;;;;16.15;100.00;98256.06;5045848;28;20045;-95
2023/06/12 03:52:40;;;;;;;15.10;7.93;;;;;;;16.12;100.00;98248.22;5045431;28;20049;-95
2023/06/12 03:55:06;;;;;;;17.42;7.35;;;;;;;16.16;100.00;98243.53;5044743;28;20049;-94
2023/06/12 03:57:32;;;;;;;14.45;7.25;;;;;;;16.15;100.00;98256.06;5044450;28;20056;-94
2023/06/12 03:59:58;;;;;;;14.35;7.75;;;;;;;16.11;100.00;98257.22;5044101;28;20090;-95
2023/06/12 04:02:25;;;;;;;16.70;7.82;;;;;;;16.22;100.00;98264.63;5042891;28;20117;-94
2023/06/12 04:04:51;;;;;;;16.73;8.10;;;;;;;16.28;100.00;98258.03;5042143;28;20042;-94
2023/06/12 04:07:18;;;;;;;14.63;7.78;;;;;;;16.33;100.00;98251.47;5042385;28;20057;-94
2023/06/12 04:09:44;;;;;;;14.68;7.70;;;;;;;16.34;100.00;98260.38;5060520;28;20053;-93
2023/06/12 04:12:11;;;;;;;16.08;7.55;;;;;;;16.22;100.00;98244.03;5044168;28;20065;-94
2023/06/12 04:14:37;;;;;;;16.13;7.78;;;;;;;16.35;100.00;98264.78;5044313;28;20167;-95
2023/06/12 04:17:03;;;;;;;18.70;7.90;;;;;;;16.55;100.00;98274.34;5043966;28;20050;-94
2023/06/12 04:19:29;;;;;;;17.95;7.22;;;;;;;16.43;100.00;98252.63;5044522;28;20179;-94
2023/06/12 04:21:55;;;;;;;16.83;7.88;;;;;;;16.47;100.00;98249.78;5044672;28;20050;-93
2023/06/12 04:24:24;;;;;;;16.10;8.02;;;;;;;16.50;100.00;98242.41;5045620;28;20067;-95
2023/06/12 04:26:50;;;;;;;16.10;7.65;;;;;;;16.62;100.00;98243.50;5046038;28;20052;-93
2023/06/12 04:29:17;;;;;;;13.27;7.50;;;;;;;16.73;100.00;98249.06;5044907;28;20053;-94
2023/06/12 04:31:43;;;;;;;17.77;7.43;;;;;;;16.82;100.00;98247.69;5061666;28;20519;-94
2023/06/12 04:34:15;;;;;;;17.52;7.85;;;;;;;17.00;100.00;98245.69;5045764;28;20041;-95
2023/06/12 04:36:41;;;;;;;13.23;7.38;;;;;;;17.03;100.00;98235.63;5046521;28;20041;-94
2023/06/12 04:39:11;;;;;;;15.25;7.18;;;;;;;17.11;100.00;98235.16;5046039;28;20129;-95
2023/06/12 04:41:39;;;;;;;12.02;7.25;;;;;;;17.24;100.00;98243.31;5045964;28;20384;-95
2023/06/12 04:44:06;;;;;;;16.87;7.53;;;;;;;17.20;100.00;98229.22;5062315;28;20046;-94
2023/06/12 04:46:32;;;;;;;18.95;8.57;;;;;;;17.30;100.00;98242.06;5046739;28;20042;-95
2023/06/12 04:48:59;;;;;;;13.15;7.35;;;;;;;17.31;100.00;98233.91;5046298;28;20506;-94
2023/06/12 04:51:26;;;;;;;17.00;7.75;;;;;;;17.70;100.00;98232.31;5046393;28;20049;-93
2023/06/12 04:53:53;;;;;;;20.55;10.20;;;;;;;18.43;100.00;98241.88;5046253;28;20391;-94
2023/06/12 04:56:21;;;;;;;16.33;8.38;;;;;;;19.15;100.00;98228.88;5045935;28;20514;-96
2023/06/12 04:58:50;;;;;;;17.67;8.60;;;;;;;19.76;100.00;98234.41;5047512;28;20045;-95
2023/06/12 05:01:19;;;;;;;16.65;8.48;;;;;;;20.33;100.00;98223.94;5047449;28;20033;-95
2023/06/12 05:03:47;;;;;;;13.30;7.20;;;;;;;21.04;100.00;98265.34;5047336;28;20095;-95
2023/06/12 05:06:14;;;;;;;12.88;6.93;;;;;;;20.95;100.00;98230.88;5047855;28;20149;-96
2023/06/12 05:08:40;;;;;;;14.77;7.65;;;;;;;21.20;99.34;98238.78;5045064;28;20049;-96
2023/06/12 05:11:06;;;;;;;15.93;7.65;;;;;;;21.49;98.07;98223.00;5039493;28;20118;-95
2023/06/12 05:13:32;;;;;;;13.40;7.70;;;;;;;21.83;95.66;98211.25;5042014;28;20046;-95
2023/06/12 05:16:00;;;;;;;13.32;7.20;;;;;;;21.79;93.96;98215.19;5042382;28;20060;-95
2023/06/12 05:18:26;;;;;;;12.70;7.30;;;;;;;21.98;93.98;98217.25;5042030;28;20046;-95
2023/06/12 05:20:52;;;;;;;15.25;7.50;;;;;;;22.26;91.39;98221.28;5040941;28;20434;-95
2023/06/12 05:23:17;;;;;;;14.00;7.90;;;;;;;22.39;93.49;98243.63;5044597;28;20053;-95
2023/06/12 05:25:43;;;;;;;16.73;8.00;;;;;;;22.43;92.70;98226.13;5045942;28;20096;-96
2023/06/12 05:28:09;;;;;;;14.18;7.90;;;;;;;22.70;89.20;98222.91;5041431;28;20041;-95
2023/06/12 05:30:35;;;;;;;14.95;8.00;;;;;;;22.62;88.83;98221.84;5042848;28;20042;-95
2023/06/12 05:33:03;;;;;;;15.63;7.70;;;;;;;22.67;89.26;98235.88;5044274;28;20045;-94
2023/06/12 05:35:31;;;;;;;15.27;8.02;;;;;;;22.63;90.48;98237.13;5044535;28;20071;-95
2023/06/12 05:37:57;;;;;;;15.40;7.70;;;;;;;22.64;90.92;98238.81;5045394;28;20058;-95
2023/06/12 05:40:23;;;;;;;18.70;7.63;;;;;;;22.79;88.36;98237.50;5043091;28;20053;-94
2023/06/12 05:42:50;;;;;;;15.93;8.15;;;;;;;22.20;92.37;98249.69;5044000;28;20502;-95
2023/06/12 05:45:15;;;;;;;16.23;8.85;;;;;;;21.81;92.22;98251.13;5042079;28;20113;-94
2023/06/12 05:47:42;;;;;;;17.00;8.35;;;;;;;22.00;93.75;98250.47;5044560;28;20068;-95
2023/06/12 05:50:10;;;;;;;17.45;8.25;;;;;;;22.31;94.48;98251.53;5047134;28;20051;-96
2023/06/12 05:52:36;;;;;;;15.60;8.52;;;;;;;22.41;91.21;98240.78;5046496;28;20049;-95
2023/06/12 05:55:02;;;;;;;17.48;8.50;;;;;;;22.47;89.63;98251.97;5040677;28;20479;-95
2023/06/12 05:57:29;;;;;;;18.67;8.95;;;;;;;22.12;93.25;98249.44;5045814;28;20056;-95
2023/06/12 05:59:55;;;;;;;16.10;8.02;;;;;;;22.13;92.88;98243.91;5047428;28;20136;-95
2023/06/12 06:02:21;;;;;;;17.23;8.35;;;;;;;22.42;91.44;98245.22;5045254;28;20053;-95
2023/06/12 06:04:47;;;;;;;14.57;7.85;;;;;;;22.13;93.34;98243.06;5045870;28;20057;-95
2023/06/12 06:07:15;;;;;;;16.85;9.02;;;;;;;21.95;93.96;98248.16;5044083;28;20054;-96
2023/06/12 06:09:41;;;;;;;18.42;8.88;;;;;;;21.21;97.31;98254.06;5042478;28;20049;-95
2023/06/12 06:12:07;;;;;;;17.35;9.50;;;;;;;21.18;100.00;98256.97;5045464;28;20076;-95
2023/06/12 06:14:34;;;;;;;19.83;9.73;;;;;;;21.07;100.00;98262.38;5045357;28;20064;-95
2023/06/12 06:17:00;;;;;;;18.17;9.02;;;;;;;21.39;98.61;98273.38;5045487;28;20526;-96
2023/06/12 06:19:26;;;;;;;18.88;10.10;;;;;;;21.63;98.70;98286.81;5043481;28;20037;-95
2023/06/12 06:21:52;;;;;;;18.08;8.88;;;;;;;22.09;97.73;98260.53;5041707;28;20045;-94
2023/06/12 06:24:19;;;;;;;18.52;9.50;;;;;;;22.59;93.67;98262.75;5044024;28;20049;-96
2023/06/12 06:26:45;;;;;;;20.90;9.68;;;;;;;22.50;90.61;98264.41;5038585;28;20083;-94
2023/06/12 06:29:11;;;;;;;18.20;8.80;;;;;;;22.22;91.68;98254.97;5042616;28;20503;-95
2023/06/12 06:31:37;;;;;;;18.23;9.30;;;;;;;22.27;94.83;98259.06;5043780;28;20055;-96
2023/06/12 06:34:03;;;;;;;17.60;8.85;;;;;;;22.62;93.49;98262.50;5042392;28;20048;-95
2023/06/12 06:36:29;;;;;;;19.25;9.90;;;;;;;22.26;91.74;98279.00;5037289;28;20086;-95
2023/06/12 06:38:55;;;;;;;17.45;9.70;;;;;;;21.76;96.45;98286.69;5035972;28;20049;-95
2023/06/12 06:41:23;;;;;;;17.33;8.95;;;;;;;22.23;92.92;98264.84;5036743;28;20441;-95
2023/06/12 06:43:49;;;;;;;18.45;9.68;;;;;;;22.14;94.88;98290.81;5053503;28;20083;-94
2023/06/12 06:46:15;;;;;;;21.10;9.48;;;;;;;22.26;93.41;98286.28;5036375;28;20049;-96
2023/06/12 06:48:41;;;;;;;18.83;9.93;;;;;;;22.50;92.38;98296.91;5036588;28;20144;-92
2023/06/12 06:51:07;;;;;;;17.75;9.27;;;;;;;22.53;93.00;98262.31;5037098;28;20140;-95
2023/06/12 06:53:33;;;;;;;17.55;9.15;;;;;;;22.86;91.71;98265.84;5035979;28;20042;-95
2023/06/12 06:56:00;;;;;;;18.65;8.82;;;;;;;22.67;90.95;98252.13;5036217;28;20483;-93
2023/06/12 06:58:31;;;;;;;17.80;9.18;;;;;;;22.75;92.17;98274.03;5039974;28;20499;-95
2023/06/12 07:00:57;;;;;;;17.75;9.60;;;;;;;22.19;91.64;98257.94;5042232;28;20049;-93
2023/06/12 07:03:23;;;;;;;19.92;9.32;;;;;;;22.01;93.95;98268.44;5040495;28;20041;-95
2023/06/12 07:05:49;;;;;;;17.83;9.60;;;;;;;21.93;94.50;98269.06;5042336;28;20037;-96
2023/06/12 07:08:15;;;;;;;19.35;9.93;;;;;;;22.12;93.42;98290.94;5040014;28;20049;-92
2023/06/12 07:10:41;;;;;;;28.10;10.13;;;;;;;22.01;94.09;98265.72;5039627;28;20049;-94
2023/06/12 07:13:07;;;;;;;17.48;9.95;;;;;;;21.76;95.31;98267.75;5042058;28;20049;-93
2023/06/12 07:15:34;;;;;;;18.45;9.55;;;;;;;22.22;93.31;98261.28;5041302;28;20099;-95
2023/06/12 07:18:00;;;;;;;19.13;10.63;;;;;;;22.29;91.29;98254.38;5038080;28;20041;-93
2023/06/12 07:20:26;;;;;;;17.77;9.07;;;;;;;22.89;90.74;98262.00;5040566;28;20038;-95
2023/06/12 07:22:52;;;;;;;17.00;9.80;;;;;;;22.85;89.17;98260.53;5038929;28;20042;-95
2023/06/12 07:25:18;;;;;;;17.33;9.43;;;;;;;22.95;87.05;98266.91;5040195;28;20453;-95
2023/06/12 07:27:44;;;;;;;16.83;9.07;;;;;;;22.91;90.69;98243.75;5041681;28;20046;-96
2023/06/12 07:30:11;;;;;;;18.05;9.50;;;;;;;23.19;87.77;98250.38;5040862;28;20049;-95
2023/06/12 07:32:38;;;;;;;18.88;10.27;;;;;;;23.16;88.29;98284.06;5039654;28;20042;-95
2023/06/12 07:35:05;;;;;;;19.63;10.02;;;;;;;23.23;88.84;98276.25;5039972;28;20103;-94
2023/06/12 07:37:35;;;;;;;16.65;9.80;;;;;;;23.30;88.08;98263.00;5039753;28;20052;-92
2023/06/12 07:40:04;;;;;;;24.33;10.25;;;;;;;22.65;88.91;98246.00;5040366;28;20499;-94
2023/06/12 07:42:32;;;;;;;17.85;9.70;;;;;;;23.31;86.60;98243.91;5041194;28;20120;-95
2023/06/12 07:44:58;;;;;;;17.27;8.68;;;;;;;23.74;86.04;98241.91;5044124;28;20050;-94
2023/06/12 07:47:24;;;;;;;14.68;9.00;;;;;;;23.31;86.65;98248.44;5041203;28;20046;-95
2023/06/12 07:49:51;;;;;;;17.73;8.90;;;;;;;23.98;84.51;98247.91;5043040;28;20045;-94
2023/06/12 07:52:17;;;;;;;17.73;8.80;;;;;;;24.19;81.40;98246.94;5041819;28;20049;-95
2023/06/12 07:54:43;;;;;;;17.38;9.85;;;;;;;23.40;83.55;98255.78;5042224;28;20049;-93
2023/06/12 07:57:10;;;;;;;16.13;9.20;;;;;;;23.98;84.25;98263.31;5042336;28;20045;-95
2023/06/12 07:59:36;;;;;;;17.42;10.25;;;;;;;23.50;81.08;98242.25;5043272;28;20069;-94
2023/06/12 08:02:02;;;;;;;15.38;7.85;;;;;;;23.63;81.76;98233.88;5045814;28;20037;-94
2023/06/12 08:04:29;;;;;;;16.30;8.90;;;;;;;24.15;81.63;98267.22;5045805;28;20120;-93
2023/06/12 08:06:57;;;;;;;14.23;9.00;;;;;;;23.64;81.23;98244.63;5042283;28;20131;-94
2023/06/12 08:09:23;;;;;;;16.10;9.13;;;;;;;23.35;84.68;98231.75;5036177;28;20042;-95
2023/06/12 08:11:48;;;;;;;18.30;8.63;;;;;;;23.76;82.62;98261.69;5032676;28;20037;-92
2023/06/12 08:14:14;;;;;;;17.00;8.45;;;;;;;24.22;78.53;98246.63;5033898;28;20521;-93
2023/06/12 08:16:41;;;;;;;15.15;9.18;;;;;;;24.14;80.26;98247.34;5032179;28;20029;-92
2023/06/12 08:19:07;;;;;;;15.95;8.57;;;;;;;24.37;76.17;98239.78;5032914;28;20046;-92
2023/06/12 08:21:33;;;;;;;16.88;9.20;;;;;;;24.51;76.67;98260.31;5033010;28;20038;-91
2023/06/12 08:24:00;;;;;;;13.20;8.15;;;;;;;25.24;76.07;98261.69;5032868;28;20072;-92
2023/06/12 08:26:26;;;;;;;13.65;7.93;;;;;;;25.46;72.91;98250.47;5033491;28;20041;-93
2023/06/12 08:28:52;;;;;;;15.77;8.23;;;;;;;25.99;75.32;98258.00;5033247;28;20048;-92
2023/06/12 08:31:18;;;;;;;13.30;8.73;;;;;;;26.19;71.16;98241.53;5032938;28;20045;-93
2023/06/12 08:33:44;;;;;;;15.02;8.32;;;;;;;26.02;73.18;98243.22;5031922;28;20065;-91
2023/06/12 08:36:12;;;;;;;16.15;8.27;;;;;;;25.55;66.14;98251.44;5032242;28;20041;-94
2023/06/12 08:38:37;;;;;;;13.25;7.95;;;;;;;26.30;64.51;98249.50;5032514;28;20049;-93
2023/06/12 08:41:05;;;;;;;15.02;8.38;;;;;;;26.64;61.79;98254.31;5032981;28;20041;-95
2023/06/12 08:43:33;;;;;;;14.13;8.10;;;;;;;26.36;60.72;98250.75;5033858;28;20046;-93
2023/06/12 08:46:03;;;;;;;15.17;8.13;;;;;;;26.49;61.53;98259.41;5033670;28;20128;-96
2023/06/12 08:48:29;;;;;;;17.23;8.02;;;;;;;26.33;58.38;98254.66;5034196;28;20100;-94
2023/06/12 08:50:55;;;;;;;11.95;7.18;;;;;;;26.53;57.25;98259.97;5033781;28;20041;-94
2023/06/12 08:53:22;;;;;;;10.60;7.53;;;;;;;26.53;57.27;98235.41;5034183;28;20458;-95
2023/06/12 08:55:50;;;;;;;13.02;7.80;;;;;;;26.22;60.14;98247.53;5032603;28;20045;-93
2023/06/12 08:58:17;;;;;;;13.90;7.72;;;;;;;26.40;55.72;98253.00;5034214;28;20124;-95
2023/06/12 09:00:44;;;;;;;22.52;7.80;;;;;;;25.97;58.56;98275.50;5034579;28;20053;-94
2023/06/12 09:03:11;;;;;;;11.70;7.15;;;;;;;25.38;59.70;98248.50;5033189;28;20493;-94
2023/06/12 09:05:39;;;;;;;12.93;7.25;;;;;;;24.93;60.43;98272.75;5032692;28;20134;-91
2023/06/12 09:08:05;;;;;;;10.52;7.07;;;;;;;24.79;61.37;98268.63;5047518;28;20037;-94
2023/06/12 09:10:31;;;;;;;13.95;8.13;;;;;;;24.84;60.80;98241.84;5048213;28;20037;-94
2023/06/12 09:12:58;;;;;;;14.38;7.15;;;;;;;25.56;60.61;98245.84;5037489;28;20050;-94
2023/06/12 09:15:26;;;;;;;11.65;6.85;;;;;;;25.33;59.41;98245.38;5037844;28;20045;-95
2023/06/12 09:17:54;;;;;;;12.07;7.05;;;;;;;25.20;59.65;98250.28;5037086;28;20047;-94
2023/06/12 09:20:27;;;;;;;13.18;7.22;;;;;;;25.66;59.36;98240.38;5038212;28;20042;-93
2023/06/12 09:22:53;;;;;;;13.00;7.07;;;;;;;26.28;58.33;98254.22;5037763;28;20049;-93
2023/06/12 09:25:19;;;;;;;11.38;6.60;;;;;;;26.49;57.76;98228.56;5035362;28;20076;-94
2023/06/12 09:27:47;;;;;;;10.60;6.82;;;;;;;25.90;56.80;98248.03;5032669;28;20060;-94
2023/06/12 09:30:13;;;;;;;10.88;6.78;;;;;;;25.87;55.20;98240.09;5048125;28;20037;-92
2023/06/12 09:32:43;;;;;;;9.07;6.65;;;;;;;26.38;55.38;98246.00;5051027;28;20044;-92
2023/06/12 09:35:10;;;;;;;9.70;6.30;;;;;;;26.53;54.08;98228.09;5035484;28;20104;-94
2023/06/12 09:37:37;;;;;;;10.88;6.72;;;;;;;26.52;54.24;98234.53;5034164;28;20045;-93
2023/06/12 09:40:10;;;;;;;11.70;6.43;;;;;;;26.56;54.20;98237.84;5035439;28;20111;-93
2023/06/12 09:42:37;;;;;;;9.85;6.03;;;;;;;26.99;54.22;98255.28;5051592;28;20042;-92
2023/06/12 09:45:11;;;;;;;9.60;5.85;;;;;;;26.78;54.87;98247.44;5033031;28;20096;-93
2023/06/12 09:47:42;;;;;;;10.35;6.18;;;;;;;27.08;52.24;98237.94;5033649;28;20053;-94
2023/06/12 09:50:09;;;;;;;9.90;6.18;;;;;;;27.58;51.26;98258.28;5034137;28;20084;-94
2023/06/12 09:52:36;;;;;;;9.45;6.43;;;;;;;26.77;49.62;98224.75;5034612;28;20132;-93
2023/06/12 09:55:05;;;;;;;9.80;6.78;;;;;;;26.10;50.24;98228.84;5033089;28;20049;-93
2023/06/12 09:57:35;;;;;;;11.45;6.63;;;;;;;26.14;50.56;98222.91;5035975;28;20511;-94
2023/06/12 10:00:02;;;;;;;8.68;6.05;;;;;;;26.82;51.30;98244.22;5033216;28;20050;-95
2023/06/12 10:02:31;;;;;;;9.80;6.20;;;;;;;26.86;50.62;98243.94;5036225;28;20048;-94
2023/06/12 10:05:05;;;;;;;11.35;6.05;;;;;;;26.77;48.42;98230.22;5053928;28;20041;-93
2023/06/12 10:07:38;;;;;;;8.05;5.20;;;;;;;27.13;46.67;98216.50;5053607;28;20138;-96
2023/06/12 10:10:07;;;;;;;7.22;4.88;;;;;;;27.41;46.69;98217.22;5038571;28;20127;-95
2023/06/12 10:12:35;;;;;;;9.02;5.38;;;;;;;27.16;47.09;98218.91;5038308;28;20148;-95
2023/06/12 10:15:03;;;;;;;12.38;5.95;;;;;;;27.27;47.87;98238.81;5038107;28;20570;-93
2023/06/12 10:17:30;;;;;;;14.77;6.97;;;;;;;26.09;50.50;98213.47;5036328;28;20041;-95
2023/06/12 10:19:59;;;;;;;9.90;6.47;;;;;;;26.84;50.26;98223.09;5038610;28;20053;-95
2023/06/12 10:22:25;;;;;;;10.15;6.10;;;;;;;27.28;47.33;98215.94;5041581;28;20071;-95
2023/06/12 10:24:51;;;;;;;9.77;6.03;;;;;;;27.67;48.51;98210.84;5040014;28;20048;-95
2023/06/12 10:27:18;;;;;;;9.98;6.50;;;;;;;27.84;47.29;98201.69;5042660;28;20092;-95
2023/06/12 10:29:44;;;;;;;11.13;6.53;;;;;;;28.31;47.47;98213.16;5039055;28;20128;-93
2023/06/12 10:32:14;;;;;;;10.95;6.40;;;;;;;27.61;49.21;98217.84;5038699;28;20080;-95
2023/06/12 10:34:41;;;;;;;9.13;6.05;;;;;;;27.33;46.90;98235.44;5031399;28;20052;-93
2023/06/12 10:37:23;;;;;;;10.32;6.10;;;;;;;27.65;46.67;98212.88;5037936;28;20045;-96
2023/06/12 10:40:07;;;;;;;10.02;6.45;;;;;;;28.15;46.38;98208.50;5036168;28;20053;-93
2023/06/12 10:42:44;;;;;;;9.63;6.65;;;;;;;28.46;45.75;98195.91;5037038;28;20045;-95
2023/06/12 10:45:20;;;;;;;8.40;5.75;;;;;;;28.47;44.30;98194.03;5037379;28;20045;-94
2023/06/12 10:48:17;;;;;;;10.30;6.55;;;;;;;28.66;45.36;98218.34;5036997;28;20053;-94
2023/06/12 10:50:45;;;;;;;10.77;6.43;;;;;;;28.19;45.92;98196.19;5033294;28;20105;-95
2023/06/12 10:53:14;;;;;;;9.40;6.00;;;;;;;28.46;43.54;98201.38;5037579;28;20029;-94
2023/06/12 10:55:41;;;;;;;10.00;6.70;;;;;;;27.82;45.79;98203.78;5036574;28;20305;-94
2023/06/12 10:58:08;;;;;;;9.98;6.13;;;;;;;27.86;45.97;98204.31;5052890;28;20037;-94
2023/06/12 11:00:36;;;;;;;7.72;5.55;;;;;;;27.29;46.12;98201.28;5034009;28;20042;-94
2023/06/12 11:03:03;;;;;;;9.48;6.25;;;;;;;27.84;46.61;98203.59;5035631;28;20038;-94
2023/06/12 11:05:30;;;;;;;10.80;5.97;;;;;;;28.17;43.17;98180.00;5036736;28;20045;-94
2023/06/12 11:07:57;;;;;;;9.65;5.95;;;;;;;28.29;44.23;98191.44;5038487;28;20041;-95
2023/06/12 11:10:25;;;;;;;8.40;5.75;;;;;;;27.72;44.91;98177.59;5038886;28;20041;-94
2023/06/12 11:12:52;;;;;;;8.50;5.80;;;;;;;27.29;45.55;98172.09;5042270;28;20049;-95
2023/06/12 11:15:18;;;;;;;7.75;5.63;;;;;;;27.29;46.58;98206.75;5043520;28;20056;-95
2023/06/12 11:17:50;;;;;;;8.85;6.18;;;;;;;26.91;47.36;98176.09;5042147;28;20049;-95
2023/06/12 11:20:18;;;;;;;9.52;6.20;;;;;;;27.16;46.67;98166.19;5040800;28;20065;-95
2023/06/12 11:22:46;;;;;;;9.20;5.70;;;;;;;27.84;45.34;98170.78;5036096;28;20121;-94